Time;durP1;ratioP1;P1;durP2;ratioP2;P2;SDS_P1;SDS_P2;PMS_P1;PMS_P2;Temp;Humidity;BMP_temperature;BMP_pressure;BME280_temperature;BME280_humidity;BME280_pressure;Samples;Min_cycle;Max_cycle;Signal;HPM_P1;HPM_P2
2022/01/23 00:01:33;;;;;;;41.13;12.98;;;;;;;-3.17;73.75;99458.41;5074788;28;20045;-56
2022/01/23 00:04:00;;;;;;;35.20;13.73;;;;;;;-3.23;73.95;99462.13;5057002;28;20044;-56
2022/01/23 00:06:27;;;;;;;36.80;13.75;;;;;;;-3.23;74.12;99464.84;5080325;28;20127;-58
2022/01/23 00:08:54;;;;;;;34.05;12.45;;;;;;;-3.29;74.31;99460.38;5059222;28;20052;-54
2022/01/23 00:11:25;;;;;;;41.88;13.88;;;;;;;-3.33;74.56;99464.69;5078617;28;20051;-58
2022/01/23 00:19:13;;;;;;;36.30;13.20;;;;;;;-3.26;74.37;99476.22;5076971;28;20055;-57
2022/01/23 00:21:41;;;;;;;36.22;14.40;;;;;;;-3.23;73.91;99486.59;5076798;28;20569;-58
2022/01/23 00:32:10;;;;;;;40.60;14.57;;;;;;;-3.35;74.36;99499.44;5076572;28;20419;-59
2022/01/23 00:34:37;;;;;;;42.60;13.52;;;;;;;-3.38;74.29;99505.38;5078132;28;20120;-58
2022/01/23 00:37:04;;;;;;;38.03;13.52;;;;;;;-3.40;74.24;99512.97;5058860;28;20545;-57
2022/01/23 00:39:31;;;;;;;34.25;13.68;;;;;;;-3.37;74.28;99520.63;5060498;28;20158;-58
2022/01/23 00:41:58;;;;;;;47.90;16.08;;;;;;;-3.33;74.43;99524.50;5077084;28;20072;-60
2022/01/23 00:44:27;;;;;;;36.38;13.13;;;;;;;-3.40;74.10;99529.28;5077928;28;20114;-58
2022/01/23 00:46:54;;;;;;;46.65;16.95;;;;;;;-3.46;74.58;99535.69;5084718;28;20475;-59
2022/01/23 00:49:24;;;;;;;36.55;13.70;;;;;;;-3.49;75.24;99530.72;5077316;28;20052;-59
2022/01/23 00:51:54;;;;;;;42.67;12.70;;;;;;;-3.52;74.68;99533.09;5076437;28;20155;-58
2022/01/23 00:54:21;;;;;;;34.53;14.20;;;;;;;-3.57;74.83;99527.56;5059191;28;20075;-59
2022/01/23 00:56:49;;;;;;;35.05;12.48;;;;;;;-3.54;74.75;99532.50;5077546;28;20435;-58
2022/01/23 00:59:16;;;;;;;49.63;14.52;;;;;;;-3.59;74.65;99525.06;5077615;28;20044;-59
2022/01/23 01:01:43;;;;;;;47.38;19.42;;;;;;;-3.64;74.48;99527.72;5077309;28;20049;-59
2022/01/23 01:04:10;;;;;;;35.38;13.77;;;;;;;-3.68;75.16;99534.69;5076091;28;20472;-59
2022/01/23 01:06:37;;;;;;;43.53;15.95;;;;;;;-3.70;75.21;99545.00;5077662;28;20410;-57
2022/01/23 01:09:06;;;;;;;41.92;15.40;;;;;;;-3.74;74.93;99543.00;5076201;28;20131;-59
2022/01/23 01:14:29;;;;;;;35.25;13.63;;;;;;;-3.68;75.48;99548.28;5076075;28;20078;-60
2022/01/23 01:31:05;;;;;;;43.35;14.80;;;;;;;-3.59;74.82;99568.56;5076108;28;20598;-61
2022/01/23 01:36:17;;;;;;;41.63;15.03;;;;;;;-3.66;74.59;99558.91;5075728;28;20196;-61
2022/01/23 01:38:45;;;;;;;46.33;15.85;;;;;;;-3.70;75.12;99561.28;5087678;28;20087;-61
2022/01/23 01:41:15;;;;;;;51.75;20.42;;;;;;;-3.67;74.63;99566.25;5075639;28;20052;-62
2022/01/23 01:43:42;;;;;;;45.17;15.73;;;;;;;-3.71;75.21;99570.50;5076171;28;20044;-61
2022/01/23 01:46:09;;;;;;;43.03;15.18;;;;;;;-3.73;75.04;99574.53;5057845;28;20127;-61
2022/01/23 01:48:36;;;;;;;36.20;13.75;;;;;;;-3.69;74.72;99573.81;5076706;28;20044;-61
2022/01/23 01:51:06;;;;;;;42.08;16.85;;;;;;;-3.68;74.95;99580.06;5058149;28;20052;-62
2022/01/23 01:53:33;;;;;;;37.13;15.25;;;;;;;-3.75;75.06;99574.75;5076557;28;20094;-60
2022/01/23 01:56:00;;;;;;;46.72;17.08;;;;;;;-3.68;74.98;99590.94;5075233;28;20131;-60
2022/01/23 01:58:57;;;;;;;31.88;15.52;;;;;;;-3.74;75.02;99600.88;5076740;28;20059;-61
2022/01/23 02:25:16;;;;;;;31.65;12.55;;;;;;;-3.58;74.85;99649.06;5076008;28;20079;-61
2022/01/23 02:55:13;;;;;;;27.92;12.90;;;;;;;-3.75;74.39;99688.91;5075158;28;20060;-61
2022/01/23 03:00:15;;;;;;;29.90;9.93;;;;;;;-3.56;74.07;99714.88;5075781;28;20048;-61
2022/01/23 03:02:48;;;;;;;25.67;11.20;;;;;;;-3.67;74.46;99713.00;5073750;28;20113;-61
2022/01/23 03:05:36;;;;;;;27.80;12.10;;;;;;;-3.69;74.64;99720.56;5075330;28;20531;-61
2022/01/23 03:08:42;;;;;;;23.52;10.75;;;;;;;-3.59;75.18;99715.34;5082516;28;20479;-61
2022/01/23 03:11:05;;;;;;;26.27;11.68;;;;;;;-3.56;74.54;99728.47;5074266;28;20415;-61
2022/01/23 03:13:52;;;;;;;25.25;10.50;;;;;;;-3.53;74.07;99741.59;5075358;28;20093;-61
2022/01/23 03:24:49;;;;;;;23.95;10.70;;;;;;;-3.68;74.70;99754.81;5073754;28;20062;-61
2022/01/23 03:30:24;;;;;;;30.77;12.27;;;;;;;-3.78;74.03;99754.59;5060510;28;20070;-61
2022/01/23 03:32:52;;;;;;;28.77;12.40;;;;;;;-3.78;74.20;99760.03;5057912;28;22220;-61
2022/01/23 03:35:21;;;;;;;36.08;15.15;;;;;;;-3.78;74.52;99779.91;5076825;28;20039;-61
2022/01/23 03:37:49;;;;;;;32.10;12.32;;;;;;;-3.76;73.69;99782.38;5072809;28;20040;-61
2022/01/23 03:40:17;;;;;;;27.55;12.13;;;;;;;-3.76;74.56;99774.22;5075008;28;20142;-62
2022/01/23 03:42:46;;;;;;;30.88;12.48;;;;;;;-3.73;74.32;99784.63;5073459;28;20048;-60
2022/01/23 03:45:39;;;;;;;31.17;13.52;;;;;;;-3.69;74.41;99788.50;5075293;28;20811;-58
2022/01/23 03:50:47;;;;;;;38.75;14.68;;;;;;;-3.75;73.64;99797.59;5074660;28;20044;-59
2022/01/23 03:53:15;;;;;;;30.58;12.52;;;;;;;-3.77;74.11;99802.44;5073363;28;20147;-57
2022/01/23 03:55:43;;;;;;;32.35;15.27;;;;;;;-3.68;73.61;99814.63;5074444;28;20533;-58
2022/01/23 03:58:10;;;;;;;34.60;14.77;;;;;;;-3.61;74.18;99826.22;5073415;28;20139;-58
2022/01/23 04:00:37;;;;;;;32.40;15.27;;;;;;;-3.62;73.91;99838.16;5074825;28;20079;-58
2022/01/23 04:03:05;;;;;;;32.55;12.95;;;;;;;-3.67;74.13;99819.00;5073602;28;20044;-59
2022/01/23 04:05:33;;;;;;;32.92;15.02;;;;;;;-3.71;73.53;99825.16;5074528;28;20056;-59
2022/01/23 04:08:00;;;;;;;36.25;14.23;;;;;;;-3.70;73.90;99827.63;5073396;28;20076;-59
2022/01/23 04:10:27;;;;;;;31.85;13.55;;;;;;;-3.62;73.50;99838.16;5075050;28;20072;-60
2022/01/23 04:12:59;;;;;;;39.70;15.73;;;;;;;-3.63;73.47;99839.22;5073076;28;20066;-60
2022/01/23 04:15:42;;;;;;;37.97;14.93;;;;;;;-3.61;73.98;99842.53;5074707;28;20058;-59
2022/01/23 04:32:22;;;;;;;43.35;17.30;;;;;;;-3.63;73.60;99871.00;5073304;28;20055;-59
2022/01/23 04:34:36;;;;;;;37.38;14.32;;;;;;;-3.69;74.05;99872.78;5078952;28;20514;-59
2022/01/23 04:45:28;;;;;;;38.67;15.85;;;;;;;-3.61;74.34;99886.03;5074714;28;20147;-59
2022/01/23 05:04:32;;;;;;;43.30;14.63;;;;;;;-3.64;73.59;99913.69;5084396;28;20571;-59
2022/01/23 05:09:27;;;;;;;36.20;13.70;;;;;;;-3.57;74.06;99922.56;5076174;28;20132;-59
2022/01/23 05:11:58;;;;;;;42.15;13.98;;;;;;;-3.48;74.25;99923.88;5076914;28;20044;-57
2022/01/23 05:14:30;;;;;;;37.20;13.27;;;;;;;-3.41;73.62;99934.66;5076447;28;20065;-56
2022/01/23 05:16:58;;;;;;;35.65;13.55;;;;;;;-3.38;73.40;99945.88;5077168;28;20139;-57
2022/01/23 05:19:25;;;;;;;37.38;13.98;;;;;;;-3.40;73.66;99952.63;5075977;28;20139;-55
2022/01/23 05:24:27;;;;;;;32.35;11.48;;;;;;;-3.39;74.21;99962.44;5058032;28;20495;-55
2022/01/23 05:27:07;;;;;;;33.88;11.38;;;;;;;-3.38;73.93;99973.06;5076797;28;20056;-57
2022/01/23 05:29:34;;;;;;;31.60;11.30;;;;;;;-3.44;74.13;99971.28;5075701;28;20400;-55
2022/01/23 05:32:04;;;;;;;25.02;10.23;;;;;;;-3.41;73.64;99973.53;5077005;28;20610;-58
2022/01/23 05:34:31;;;;;;;30.73;10.93;;;;;;;-3.38;73.95;99966.81;5083778;28;20465;-57
2022/01/23 05:36:59;;;;;;;28.70;11.27;;;;;;;-3.36;74.00;99975.56;5076756;28;20387;-59
2022/01/23 05:39:31;;;;;;;24.00;10.52;;;;;;;-3.36;74.14;99970.97;5075689;28;20557;-56
2022/01/23 05:42:05;;;;;;;27.83;11.25;;;;;;;-3.35;73.68;99972.59;5076756;28;20098;-57
2022/01/23 05:44:32;;;;;;;27.77;12.00;;;;;;;-3.33;73.40;99973.22;5075932;28;20080;-57
2022/01/23 05:47:00;;;;;;;23.75;10.43;;;;;;;-3.33;73.82;99984.09;5076656;28;20414;-56
2022/01/23 05:49:27;;;;;;;34.90;11.40;;;;;;;-3.24;73.61;99993.59;5075728;28;20052;-54
2022/01/23 05:51:54;;;;;;;27.42;11.35;;;;;;;-3.18;73.54;100000.81;5075835;28;20045;-59
2022/01/23 05:54:21;;;;;;;28.67;11.68;;;;;;;-3.17;73.60;100013.34;5075951;28;20169;-56
2022/01/23 05:56:48;;;;;;;29.67;11.13;;;;;;;-3.21;73.44;100006.72;5075756;28;20087;-57
2022/01/23 05:59:20;;;;;;;23.48;10.55;;;;;;;-3.20;73.48;100013.00;5076632;28;20052;-59
2022/01/23 06:01:51;;;;;;;24.33;9.60;;;;;;;-3.16;73.54;100036.78;5074121;28;20079;-58
2022/01/23 06:04:19;;;;;;;26.13;10.77;;;;;;;-3.12;73.60;100031.69;5058646;28;20091;-57
2022/01/23 06:06:47;;;;;;;21.70;9.18;;;;;;;-3.09;73.47;100034.78;5075347;28;20051;-55
2022/01/23 06:09:15;;;;;;;30.23;12.20;;;;;;;-3.07;72.79;100046.28;5087268;28;20511;-58
2022/01/23 06:11:42;;;;;;;25.70;11.20;;;;;;;-3.15;73.44;100049.31;5075199;28;20135;-54
2022/01/23 06:14:10;;;;;;;21.00;9.98;;;;;;;-3.15;73.46;100060.19;5076367;28;20044;-55
2022/01/23 06:16:39;;;;;;;28.83;10.25;;;;;;;-3.09;73.62;100063.88;5074614;28;20076;-59
2022/01/23 06:19:06;;;;;;;26.65;10.75;;;;;;;-3.08;73.01;100066.34;5076341;28;20570;-57
2022/01/23 06:21:33;;;;;;;26.55;9.13;;;;;;;-3.15;73.23;100064.78;5074632;28;20086;-57
2022/01/23 06:24:05;;;;;;;29.58;10.48;;;;;;;-3.10;72.97;100073.09;5076527;28;20135;-57
2022/01/23 06:26:57;;;;;;;34.33;15.43;;;;;;;-3.06;73.28;100069.69;5056678;28;20048;-56
2022/01/23 06:29:27;;;;;;;21.88;10.15;;;;;;;-3.22;73.05;100073.06;5075985;28;20052;-56
2022/01/23 06:31:55;;;;;;;23.43;10.30;;;;;;;-3.19;73.64;100080.78;5074850;28;20048;-57
2022/01/23 06:34:22;;;;;;;32.78;11.95;;;;;;;-3.11;73.11;100085.06;5066889;28;20063;-54
2022/01/23 06:36:51;;;;;;;27.30;11.15;;;;;;;-3.14;72.75;100083.59;5074873;28;20054;-57
2022/01/23 06:39:20;;;;;;;26.13;10.38;;;;;;;-3.17;72.94;100084.06;5075791;28;20462;-54
2022/01/23 06:41:47;;;;;;;25.95;10.95;;;;;;;-3.18;73.13;100090.59;5074356;28;20048;-57
2022/01/23 06:44:14;;;;;;;24.77;10.05;;;;;;;-3.19;73.05;100093.53;5058001;28;20369;-57
2022/01/23 06:46:42;;;;;;;38.30;12.23;;;;;;;-3.19;73.21;100085.38;5073990;28;20533;-57
2022/01/23 06:49:10;;;;;;;34.08;12.38;;;;;;;-3.13;73.04;100100.78;5075789;28;20423;-53
2022/01/23 06:51:38;;;;;;;24.67;10.82;;;;;;;-3.10;73.26;100095.72;5074415;28;20102;-59
2022/01/23 06:54:06;;;;;;;25.38;11.15;;;;;;;-3.04;72.63;100110.25;5075566;28;20201;-58
2022/01/23 06:56:32;;;;;;;29.67;12.48;;;;;;;-2.98;72.78;100121.06;5082296;28;20097;-56
2022/01/23 06:58:59;;;;;;;23.77;11.30;;;;;;;-2.96;73.18;100124.38;5075336;28;20063;-56
2022/01/23 07:01:27;;;;;;;30.02;11.80;;;;;;;-2.97;72.58;100133.59;5073901;28;20419;-60
2022/01/23 07:03:54;;;;;;;41.13;12.98;;;;;;;-2.98;72.87;100137.41;5074730;28;20055;-54
2022/01/23 07:06:21;;;;;;;28.48;12.98;;;;;;;-2.93;72.38;100142.16;5074017;28;20118;-56
2022/01/23 07:09:06;;;;;;;32.40;14.05;;;;;;;-2.91;72.10;100150.88;5075324;28;20048;-55
2022/01/23 07:11:33;;;;;;;27.25;11.32;;;;;;;-2.94;72.16;100149.47;5073563;28;20048;-59
2022/01/23 07:14:00;;;;;;;28.27;12.05;;;;;;;-2.93;72.42;100148.41;5074715;28;20414;-58
2022/01/23 07:16:27;;;;;;;29.85;12.32;;;;;;;-2.95;71.91;100153.25;5074398;28;20048;-56
2022/01/23 07:18:54;;;;;;;35.97;12.43;;;;;;;-2.98;72.44;100158.31;5074377;28;20466;-59
2022/01/23 07:21:21;;;;;;;25.65;10.93;;;;;;;-2.99;72.88;100152.03;5075067;28;20586;-58
2022/01/23 07:23:51;;;;;;;37.75;11.43;;;;;;;-2.97;72.10;100155.38;5073916;28;20051;-59
2022/01/23 07:26:21;;;;;;;31.08;11.82;;;;;;;-2.92;72.80;100158.25;5074539;28;20147;-57
2022/01/23 07:28:51;;;;;;;31.87;11.97;;;;;;;-2.83;72.33;100156.00;5073893;28;20131;-58
2022/01/23 07:32:07;;;;;;;35.13;13.25;;;;;;;-2.78;72.08;100162.41;5074322;28;20152;-58
2022/01/23 07:34:10;;;;;;;;;;;;;;;-2.80;71.57;100178.16;5076445;28;20056;-60
2022/01/23 07:36:38;;;;;;;31.13;11.82;;;;;;;-2.87;71.92;100171.97;5074088;28;20030;-57
2022/01/23 07:39:06;;;;;;;32.75;12.75;;;;;;;-2.78;71.93;100178.75;5074301;28;20052;-58
2022/01/23 07:41:34;;;;;;;29.73;11.60;;;;;;;-2.70;72.04;100177.59;5055672;28;20098;-57
2022/01/23 07:44:01;;;;;;;40.85;12.57;;;;;;;-2.65;71.66;100186.75;5073720;28;20045;-55
2022/01/23 07:46:28;;;;;;;30.88;11.68;;;;;;;-2.59;71.66;100191.28;5074557;28;20052;-56
2022/01/23 07:48:55;;;;;;;36.72;14.70;;;;;;;-2.59;71.59;100191.28;5073448;28;20399;-59
2022/01/23 07:51:22;;;;;;;37.42;13.45;;;;;;;-2.68;71.78;100197.25;5074738;28;20048;-56
2022/01/23 07:53:49;;;;;;;35.80;12.82;;;;;;;-2.69;71.81;100198.34;5073573;28;20056;-57
2022/01/23 07:56:17;;;;;;;32.40;13.20;;;;;;;-2.65;71.96;100213.97;5074795;28;20059;-59
2022/01/23 07:58:44;;;;;;;35.15;14.52;;;;;;;-2.72;71.63;100207.78;5073193;28;20511;-61
2022/01/23 08:01:11;;;;;;;31.92;12.43;;;;;;;-2.66;71.36;100200.59;5074809;28;20054;-57
2022/01/23 08:03:39;;;;;;;38.92;13.85;;;;;;;-2.59;71.47;100210.31;5073039;28;20040;-58
2022/01/23 08:06:06;;;;;;;39.42;13.77;;;;;;;-2.49;71.12;100215.22;5074476;28;20064;-56
2022/01/23 08:08:33;;;;;;;37.42;13.05;;;;;;;-2.45;71.13;100217.25;5073025;28;20396;-58
2022/01/23 08:11:00;;;;;;;35.30;13.77;;;;;;;-2.49;71.66;100216.03;5075035;28;20138;-60
2022/01/23 08:13:27;;;;;;;35.53;14.10;;;;;;;-2.37;71.67;100221.53;5072936;28;20250;-59
2022/01/23 08:15:54;;;;;;;35.13;13.38;;;;;;;-2.28;70.93;100237.28;5074906;28;20057;-56
2022/01/23 08:18:21;;;;;;;30.45;12.55;;;;;;;-2.35;70.73;100236.56;5072999;28;20064;-56
2022/01/23 08:20:48;;;;;;;31.25;12.40;;;;;;;-2.34;71.32;100243.69;5064319;28;20051;-54
2022/01/23 08:23:21;;;;;;;32.42;12.23;;;;;;;-2.28;71.07;100252.84;5072730;28;20068;-58
2022/01/23 08:25:48;;;;;;;43.30;13.30;;;;;;;-2.24;71.38;100260.31;5077866;28;20419;-58
2022/01/23 08:28:15;;;;;;;39.08;14.55;;;;;;;-2.20;71.06;100266.94;5077951;28;20075;-58
2022/01/23 08:30:42;;;;;;;30.25;13.13;;;;;;;-2.12;70.70;100273.97;5076945;28;20461;-60
2022/01/23 08:33:10;;;;;;;31.40;12.18;;;;;;;-2.14;70.61;100271.47;5077140;28;20089;-60
2022/01/23 08:35:37;;;;;;;33.25;13.50;;;;;;;-2.13;70.85;100281.28;5076813;28;20139;-61
2022/01/23 08:38:06;;;;;;;31.27;12.50;;;;;;;-2.12;70.56;100280.25;5078315;28;20144;-60
2022/01/23 08:43:10;;;;;;;33.58;12.50;;;;;;;-2.23;70.75;100289.22;5077866;28;20044;-61
2022/01/23 08:45:38;;;;;;;38.72;15.50;;;;;;;-2.30;70.56;100304.84;5077140;28;20079;-58
2022/01/23 08:48:06;;;;;;;49.22;17.83;;;;;;;-2.39;70.90;100314.38;5078339;28;20503;-60
2022/01/23 08:50:33;;;;;;;37.13;13.60;;;;;;;-2.38;70.84;100301.56;5076851;28;20056;-64
2022/01/23 08:53:00;;;;;;;31.25;12.98;;;;;;;-2.31;70.77;100308.59;5078051;28;20118;-61
2022/01/23 08:55:27;;;;;;;35.15;13.52;;;;;;;-2.25;70.38;100312.31;5076820;28;20056;-60
2022/01/23 08:57:54;;;;;;;37.92;13.90;;;;;;;-2.23;70.35;100321.06;5078017;28;20502;-62
2022/01/23 09:00:28;;;;;;;31.05;12.40;;;;;;;-2.27;70.38;100326.16;5076171;28;20052;-60
2022/01/23 09:02:55;;;;;;;31.30;13.27;;;;;;;-2.31;70.77;100327.66;5077566;28;20500;-59
2022/01/23 09:05:23;;;;;;;34.22;12.52;;;;;;;-2.22;70.61;100334.47;5057682;28;20056;-59
2022/01/23 09:07:51;;;;;;;43.83;14.60;;;;;;;-2.18;70.48;100343.84;5060359;28;20507;-60
2022/01/23 09:10:26;;;;;;;33.92;13.73;;;;;;;-2.13;70.42;100338.53;5076552;28;20131;-60
2022/01/23 09:13:28;;;;;;;32.00;11.80;;;;;;;-2.12;70.33;100348.38;5077912;28;20077;-60
2022/01/23 09:15:44;;;;;;;31.52;12.65;;;;;;;-2.05;69.93;100346.38;5074287;28;20157;-61
2022/01/23 09:18:11;;;;;;;39.20;13.25;;;;;;;-2.00;69.73;100340.25;5077470;28;20079;-59
2022/01/23 09:20:38;;;;;;;37.72;14.18;;;;;;;-2.02;70.22;100329.56;5076107;28;20083;-60
2022/01/23 09:23:05;;;;;;;36.53;13.65;;;;;;;-1.93;69.99;100333.63;5077402;28;20162;-61
2022/01/23 09:25:32;;;;;;;36.63;14.15;;;;;;;-1.93;69.71;100328.16;5076132;28;20418;-60
2022/01/23 09:28:03;;;;;;;37.75;13.95;;;;;;;-1.89;69.73;100337.53;5059755;28;20047;-61
2022/01/23 09:30:35;;;;;;;39.65;14.13;;;;;;;-1.91;69.98;100336.97;5075704;28;20553;-58
2022/01/23 09:33:03;;;;;;;39.28;13.55;;;;;;;-1.87;69.86;100346.31;5077380;28;20054;-62
2022/01/23 09:35:30;;;;;;;37.65;13.23;;;;;;;-1.84;69.68;100341.47;5075718;28;20090;-61
2022/01/23 09:37:58;;;;;;;32.95;13.05;;;;;;;-1.89;69.76;100345.72;5077497;28;20080;-60
2022/01/23 09:40:25;;;;;;;33.83;13.23;;;;;;;-1.90;69.73;100338.59;5075526;28;20055;-60
2022/01/23 09:43:02;;;;;;;33.33;12.95;;;;;;;-1.92;69.66;100340.72;5077232;28;20141;-64
2022/01/23 09:45:30;;;;;;;40.67;14.07;;;;;;;-1.91;69.77;100342.41;5075981;28;20136;-62
2022/01/23 09:48:01;;;;;;;28.73;13.35;;;;;;;-1.76;69.28;100354.75;5077048;28;20102;-61
2022/01/23 09:50:31;;;;;;;32.30;13.27;;;;;;;-1.69;69.29;100366.41;5075439;28;20060;-62
2022/01/23 09:52:59;;;;;;;35.88;13.80;;;;;;;-1.67;69.12;100369.72;5059368;28;20507;-64
2022/01/23 09:55:27;;;;;;;29.75;11.48;;;;;;;-1.76;69.36;100377.41;5079105;28;20502;-62
2022/01/23 09:57:54;;;;;;;31.17;13.13;;;;;;;-1.74;69.40;100382.63;5080782;28;20571;-62
2022/01/23 10:00:25;;;;;;;34.90;13.20;;;;;;;-1.70;69.26;100390.13;5075218;28;20131;-60
2022/01/23 10:02:53;;;;;;;30.75;12.75;;;;;;;-1.74;69.25;100388.09;5076903;28;20466;-62
2022/01/23 10:05:21;;;;;;;32.00;12.95;;;;;;;-1.73;69.24;100392.47;5075063;28;20547;-63
2022/01/23 10:07:48;;;;;;;41.03;14.40;;;;;;;-1.69;69.24;100393.69;5077192;28;20376;-60
2022/01/23 10:10:23;;;;;;;34.78;13.80;;;;;;;-1.62;69.04;100397.97;5075359;28;20095;-62
2022/01/23 10:12:54;;;;;;;31.13;13.23;;;;;;;-1.65;69.15;100395.72;5075488;28;20058;-62
2022/01/23 10:15:25;;;;;;;38.63;13.65;;;;;;;-1.59;68.92;100396.66;5074969;28;20056;-62
2022/01/23 10:17:53;;;;;;;35.85;13.32;;;;;;;-1.62;68.85;100399.88;5076131;28;20102;-58
2022/01/23 10:20:21;;;;;;;37.30;14.18;;;;;;;-1.68;68.89;100404.38;5057357;28;20063;-61
2022/01/23 10:22:51;;;;;;;36.60;12.07;;;;;;;-1.66;68.64;100399.47;5075159;28;20139;-59
2022/01/23 10:25:30;;;;;;;39.05;14.05;;;;;;;-1.57;68.45;100405.47;5075273;28;20590;-61
2022/01/23 10:28:18;;;;;;;36.55;13.13;;;;;;;-1.48;68.29;100407.59;5075803;28;20080;-58
2022/01/23 10:30:54;;;;;;;36.40;13.25;;;;;;;-1.41;67.97;100402.03;5074412;28;20049;-60
2022/01/23 10:33:22;;;;;;;33.42;13.55;;;;;;;-1.34;67.87;100413.69;5076171;28;20040;-60
2022/01/23 10:35:57;;;;;;;34.22;13.60;;;;;;;-1.27;67.85;100398.88;5074479;28;20048;-60
2022/01/23 10:38:29;;;;;;;32.47;13.32;;;;;;;-1.23;67.65;100404.69;5075950;28;20144;-59
2022/01/23 10:41:13;;;;;;;29.77;12.63;;;;;;;-1.21;67.71;100408.03;5074174;28;20056;-61
2022/01/23 10:49:47;;;;;;;38.33;14.65;;;;;;;-1.26;68.26;100416.91;5030100;28;20195;-60
2022/01/23 10:52:25;;;;;;;33.88;12.45;;;;;;;-1.25;68.03;100429.47;5069715;28;20074;-60
2022/01/23 10:54:52;;;;;;;36.20;12.80;;;;;;;-1.31;68.47;100429.59;5075797;28;20562;-60
2022/01/23 10:57:19;;;;;;;33.58;11.02;;;;;;;-1.37;68.18;100430.50;5074049;28;20044;-58
2022/01/23 10:59:49;;;;;;;32.45;12.38;;;;;;;-1.42;68.53;100436.69;5075365;28;20059;-61
2022/01/23 11:02:21;;;;;;;27.17;11.32;;;;;;;-1.32;68.24;100436.97;5073920;28;20098;-61
2022/01/23 11:04:58;;;;;;;31.75;12.43;;;;;;;-1.26;68.05;100440.63;5075021;28;21284;-59
2022/01/23 11:07:27;;;;;;;36.83;11.65;;;;;;;-1.38;68.44;100446.06;5074245;28;20517;-61
2022/01/23 11:09:57;;;;;;;33.78;12.27;;;;;;;-1.46;68.06;100445.56;5077642;28;20150;-60
2022/01/23 11:17:58;;;;;;;33.92;11.55;;;;;;;-1.59;68.21;100456.69;5074198;28;20048;-59
2022/01/23 11:20:41;;;;;;;30.58;12.85;;;;;;;-1.58;67.96;100459.16;5068240;28;20127;-60
2022/01/23 11:23:27;;;;;;;30.80;12.30;;;;;;;-1.54;68.20;100473.19;5075152;28;20054;-60
2022/01/23 11:25:56;;;;;;;36.67;13.98;;;;;;;-1.56;67.94;100475.31;5073722;28;20057;-62
2022/01/23 11:28:39;;;;;;;28.50;12.30;;;;;;;-1.71;67.89;100470.28;5075069;28;20052;-59
2022/01/23 11:31:09;;;;;;;32.22;13.00;;;;;;;-1.69;68.19;100480.97;5073544;28;20286;-60
2022/01/23 11:33:36;;;;;;;37.72;13.30;;;;;;;-1.67;68.01;100481.53;5082856;28;20108;-57
2022/01/23 11:36:04;;;;;;;35.17;12.85;;;;;;;-1.64;67.79;100486.53;5073851;28;20058;-58
2022/01/23 11:38:31;;;;;;;40.80;14.30;;;;;;;-1.68;67.92;100493.53;5075212;28;20054;-59
2022/01/23 11:55:04;;;;;;;32.40;12.80;;;;;;;-1.67;68.14;100503.34;5074954;28;20048;-61
2022/01/23 11:57:35;;;;;;;35.40;12.73;;;;;;;-1.67;67.74;100501.47;5073300;28;20139;-60
2022/01/23 12:00:25;;;;;;;32.63;11.38;;;;;;;-1.75;68.03;100515.41;5059537;28;20083;-58
2022/01/23 12:03:10;;;;;;;35.55;14.02;;;;;;;-1.79;67.75;100500.59;5077065;28;20056;-61
2022/01/23 12:05:39;;;;;;;35.83;12.68;;;;;;;-1.80;68.27;100503.53;5077122;28;20052;-60
2022/01/23 12:08:27;;;;;;;37.70;12.98;;;;;;;-1.86;68.24;100503.38;5081872;28;20059;-62
2022/01/23 12:11:24;;;;;;;43.40;12.50;;;;;;;-1.87;68.38;100523.53;5077361;28;20045;-61
2022/01/23 12:17:05;;;;;;;28.85;11.00;;;;;;;-1.83;68.07;100531.25;5078274;28;20072;-61
2022/01/23 12:20:00;;;;;;;30.58;12.65;;;;;;;-1.79;67.80;100533.31;5077494;28;20052;-58
2022/01/23 12:22:36;;;;;;;30.90;11.52;;;;;;;-1.76;67.90;100534.72;5080350;28;20057;-60
2022/01/23 12:25:22;;;;;;;33.58;12.35;;;;;;;-1.74;67.89;100546.25;5078442;28;20139;-60
2022/01/23 12:28:09;;;;;;;31.00;12.65;;;;;;;-1.77;67.69;100541.25;5077098;28;20056;-61
2022/01/23 12:30:37;;;;;;;31.83;13.60;;;;;;;-1.96;67.91;100554.91;5077675;28;20407;-60
2022/01/23 12:33:29;;;;;;;42.25;13.20;;;;;;;-2.00;68.13;100555.56;5077358;28;20056;-59
2022/01/23 12:36:05;;;;;;;54.00;18.40;;;;;;;-2.05;68.38;100547.25;5066140;28;20061;-59
2022/01/23 12:38:39;;;;;;;31.38;12.38;;;;;;;-2.05;68.35;100566.31;5078139;28;20055;-61
2022/01/23 12:41:25;;;;;;;43.22;14.60;;;;;;;-2.09;68.16;100563.22;5076502;28;20139;-59
2022/01/23 12:43:55;;;;;;;25.02;10.27;;;;;;;-2.25;68.65;100563.81;5077754;28;20078;-58
2022/01/23 12:46:34;;;;;;;31.83;11.88;;;;;;;-2.33;68.86;100566.84;5076953;28;20058;-59
2022/01/23 12:49:19;;;;;;;33.10;11.75;;;;;;;-2.28;68.50;100575.16;5088515;28;20500;-57
2022/01/23 12:51:48;;;;;;;33.85;12.55;;;;;;;-2.24;68.48;100578.28;5078025;28;20056;-57
2022/01/23 12:54:19;;;;;;;31.13;10.85;;;;;;;-2.31;68.55;100582.97;5076561;28;20079;-60
2022/01/23 12:56:48;;;;;;;31.27;11.70;;;;;;;-2.32;68.92;100579.41;5077616;28;20507;-57
2022/01/23 12:59:25;;;;;;;32.20;12.32;;;;;;;-2.26;68.77;100583.94;5057946;28;20148;-58
2022/01/23 13:02:02;;;;;;;30.85;12.18;;;;;;;-2.22;68.43;100584.34;5077550;28;20590;-59
2022/01/23 13:04:32;;;;;;;28.30;11.13;;;;;;;-2.20;68.46;100587.66;5075960;28;20086;-54
2022/01/23 13:07:07;;;;;;;44.03;15.97;;;;;;;-2.30;68.73;100582.72;5077934;28;20138;-61
2022/01/23 13:12:11;;;;;;;31.05;11.48;;;;;;;-2.49;68.69;100574.75;5059328;28;20111;-59
2022/01/23 13:14:48;;;;;;;27.52;11.18;;;;;;;-2.60;69.20;100595.34;5075825;28;20050;-61
2022/01/23 13:20:00;;;;;;;29.70;11.55;;;;;;;-2.66;68.84;100598.94;5075930;28;20084;-57
2022/01/23 13:29:18;;;;;;;25.00;10.93;;;;;;;-2.67;68.98;100619.06;5075945;28;20044;-59
2022/01/23 13:31:15;;;;;;;28.48;12.43;;;;;;;-2.69;68.93;100613.00;5075709;28;20075;-61
2022/01/23 13:33:42;;;;;;;30.23;11.18;;;;;;;-2.72;68.97;100621.63;5077079;28;20138;-60
2022/01/23 13:36:10;;;;;;;32.50;12.68;;;;;;;-2.76;69.15;100625.84;5075898;28;20052;-60
2022/01/23 13:38:39;;;;;;;27.33;11.32;;;;;;;-2.77;68.74;100632.34;5076773;28;20075;-61
2022/01/23 13:41:22;;;;;;;32.40;12.27;;;;;;;-2.74;68.88;100639.25;5075350;28;20244;-60
2022/01/23 13:52:39;;;;;;;34.03;13.38;;;;;;;-2.83;68.88;100662.34;5077231;28;20048;-57
2022/01/23 13:58:35;;;;;;;33.28;12.25;;;;;;;-2.92;69.65;100675.38;5031257;28;20050;-58
2022/01/23 14:01:18;;;;;;;32.53;10.87;;;;;;;-2.93;69.31;100678.31;4998603;28;20574;-57
2022/01/23 14:03:46;;;;;;;33.47;11.05;;;;;;;-3.00;69.70;100683.78;5064608;28;20064;-58
2022/01/23 14:06:13;;;;;;;46.25;12.48;;;;;;;-3.02;69.82;100679.63;5074583;28;20078;-57
2022/01/23 14:08:40;;;;;;;30.73;11.57;;;;;;;-3.04;69.32;100679.00;5076388;28;20414;-57
2022/01/23 14:11:07;;;;;;;29.45;12.20;;;;;;;-3.00;69.94;100685.66;5074947;28;20056;-57
2022/01/23 14:13:33;;;;;;;28.25;12.15;;;;;;;-3.00;69.48;100682.94;5076343;28;20503;-57
2022/01/23 14:16:00;;;;;;;33.42;12.18;;;;;;;-3.07;69.37;100687.59;5074962;28;20474;-59
2022/01/23 14:18:30;;;;;;;31.05;12.65;;;;;;;-3.21;69.65;100686.81;5075355;28;20074;-60
2022/01/23 14:21:09;;;;;;;39.72;14.43;;;;;;;-3.33;70.09;100691.25;5074853;28;20110;-56
2022/01/23 14:23:37;;;;;;;32.20;11.77;;;;;;;-3.43;70.25;100692.78;5075286;28;20052;-60
2022/01/23 14:26:07;;;;;;;32.25;11.68;;;;;;;-3.50;70.58;100697.41;5056352;28;20048;-58
2022/01/23 14:28:52;;;;;;;29.05;11.32;;;;;;;-3.54;70.30;100707.88;5075776;28;20404;-58
2022/01/23 14:31:22;;;;;;;37.10;12.25;;;;;;;-3.60;70.27;100716.88;5066819;28;20048;-58
2022/01/23 14:33:57;;;;;;;26.13;9.53;;;;;;;-3.59;70.44;100726.69;5076190;28;20048;-58
2022/01/23 14:36:34;;;;;;;28.95;11.65;;;;;;;-3.55;70.54;100732.53;5074377;28;20045;-57
2022/01/23 14:39:05;;;;;;;32.28;12.50;;;;;;;-3.38;69.98;100740.03;5076215;28;20041;-60
2022/01/23 14:41:36;;;;;;;31.20;12.35;;;;;;;-3.26;69.57;100743.75;5074037;28;20070;-57
2022/01/23 14:44:20;;;;;;;35.42;11.32;;;;;;;-3.19;69.99;100752.75;5075154;28;20056;-56
2022/01/23 14:46:50;;;;;;;28.98;10.98;;;;;;;-3.24;69.70;100743.53;5074387;28;20048;-60
2022/01/23 14:49:23;;;;;;;28.50;11.65;;;;;;;-3.15;69.78;100761.28;5056704;28;20147;-56